ENVA/TRD METAR and TAF weather

Enter ICAO airport designator
Station Type Date Time Source
ENVA METAR 2020/09/19 21:50 UTC NOAA

ENVA 192150Z 12005KT 9999 SCT035 05/04 Q1021 RMK WIND 670FT 16012KT


Station Type Date Time Source
ENVA Decoded METAR 2020/09/19 21:50 UTC NOAA

Trondheim / Vaernes, Norway (ENVA) 63-28N 010-56E 17M
Sep 19, 2020 - 05:50 PM EDT / 2020.09.19 2150 UTC
Wind: from the ESE (120 degrees) at 6 MPH (5 KT):0
Visibility: greater than 7 mile(s):0
Sky conditions: partly cloudy
Temperature: 41 F (5 C)
Dew Point: 39 F (4 C)
Relative Humidity: 93%
Pressure (altimeter): 30.15 in. Hg (1021 hPa)
ob: ENVA 192150Z 12005KT 9999 SCT035 05/04 Q1021 RMK WIND 670FT 16012KT
cycle: 22

Station Type Date Time Source
ENVA TAF 2020/09/19 18:57 UTC NOAA

TAF ENVA 191700Z 1918/2018 12005KT 9999 FEW020 BKN040
BECMG 2006/2008 26015KT
TEMPO 2006/2010 RA BKN014
TEMPO 2006/2018 27022G32KT

Example: see airport list